Terminal Aerodrome Forecast
Issued by NWS Memphis, TN

Home | Current Version | Previous Version | Text Only | Print | Product List | Glossary On
Versions: 1 2 3 4 5 6 7 8 9 10 11 12 13 14 15 16 17 18 19 20 21 22 23 24 25 26 27 28 29 30
000
FTUS44 KMEG 261723
TAFMEM
TAF
KMEM 261723Z 2618/2718 20010KT P6SM OVC250
     FM262200 29010KT P6SM SCT050
     FM270800 31010KT P6SM SCT025
     FM271200 34010KT P6SM BKN250=

USA.gov is the U.S. government's official web portal to all federal, state and local government web resources and services.